Have a Safe July 4th! 

Flight Track Log - Related Links

Times and Time Zones

All times are in EDT time to prevent confusion due to time zone crossing. See the N56765 flight status page for this flight to view local times or setup timezone preferences in your user account.

Time Position Orientation Groundspeed Altitude Reporting Facility
EDT Latitude Longitude Course Direction KTS MPH feet Rate Location/Type
Mon 12:36:09 PM 30.3342 -82.3150 332° Northwest 127 146 2,600  Level Jacksonville Center
Mon 12:37:09 PM 30.3675 -82.3292 340° North 127 146 2,500 -50 Descending Jacksonville Center
Mon 12:38:09 PM 30.4031 -82.3411 344° North 127 146 2,500  Level Jacksonville Center
Mon 12:39:09 PM 30.4386 -82.3456 354° North 127 146 2,500 50 Level Jacksonville Center
Mon 12:40:09 PM 30.4722 -82.3550 346° North 127 146 2,600 100 Climbing Jacksonville Center
Mon 12:41:00 PM 30.7919 -82.0555 332° Northwest  Level Estimated
Mon 12:41:09 PM 30.5075 -82.3622 350° North 127 146 2,700  Level Jacksonville Center
Mon 12:42:09 PM 30.5411 -82.3692 350° North 127 146 2,700  Level Jacksonville Center
Mon 12:43:09 PM 30.5786 -82.3761 351° North 127 146 2,700 -50 Level Jacksonville Center
Mon 12:44:09 PM 30.6142 -82.3856 347° North 127 146 2,600 -50 Descending Jacksonville Center
Mon 12:45:09 PM 30.6497 -82.4000 341° North 127 146 2,600  Level Jacksonville Center
Mon 12:46:09 PM 30.6853 -82.4119 344° North 127 146 2,600  Level Jacksonville Center
Mon 12:47:09 PM 30.7186 -82.4239 343° North 127 146 2,600 -50 Level Jacksonville Center
Mon 12:48:09 PM 30.7542 -82.4308 350° North 127 146 2,500 -50 Descending Jacksonville Center
Mon 12:49:09 PM 30.7878 -82.4381 350° North 127 146 2,500 500 Level Jacksonville Center
Mon 12:50:09 PM 30.8189 -82.4425 353° North 122 140 3,500 900 Climbing Jacksonville Center
Mon 12:51:09 PM 30.8461 -82.4497 347° North 110 127 4,300 800 Climbing Jacksonville Center
Mon 12:52:09 PM 30.8714 -82.4519 356° North 102 117 5,100 800 Climbing Jacksonville Center
Mon 12:53:09 PM 30.9006 -82.4592 348° North 102 117 5,900 750 Climbing Jacksonville Center
Mon 12:54:09 PM 30.9297 -82.4664 348° North 102 117 6,600 650 Climbing Jacksonville Center
Mon 12:55:09 PM 30.9569 -82.4736 347° North 102 117 7,200 600 Climbing Jacksonville Center
Mon 12:56:09 PM 30.9883 -82.4758 357° North 107 123 7,800 550 Climbing Jacksonville Center
Mon 12:57:09 PM 31.0133 -82.4853 342° North 107 123 8,300 450 Climbing Jacksonville Center
Mon 12:58:09 PM 31.0425 -82.4925 348° North 107 123 8,700 250 Climbing Jacksonville Center
Mon 12:59:09 PM 31.0719 -82.5044 341° North 107 123 8,800 100 Climbing Jacksonville Center
Mon 01:00:09 PM 31.1094 -82.5117 351° North 113 130 8,900 300 Climbing Jacksonville Center
Mon 01:01:09 PM 31.1347 -82.5286 330° Northwest 113 130 9,400 500 Climbing Jacksonville Center
Mon 01:02:09 PM 31.1617 -82.5406 339° North 107 123 9,900 450 Climbing Jacksonville Center
Mon 01:03:09 PM 31.1869 -82.5478 346° North 102 117 10,300 350 Climbing Jacksonville Center
Mon 01:04:09 PM 31.2139 -82.5525 351° North 97 112 10,600 200 Climbing Jacksonville Center
Mon 01:05:09 PM 31.2411 -82.5694 332° Northwest 97 112 10,700 50 Climbing Jacksonville Center
Mon 01:06:09 PM 31.2725 -82.5789 346° North 102 117 10,700 50 Level Jacksonville Center
Mon 01:07:09 PM 31.3039 -82.5789 360° North 102 117 10,800 50 Climbing Jacksonville Center
Mon 01:08:09 PM 31.3372 -82.5789 360° North 108 124 10,800  Level Jacksonville Center
Mon 01:09:09 PM 31.3789 -82.5786 360° North 121 139 10,800  Level Jacksonville Center
Mon 01:10:09 PM 31.4103 -82.5811 356° North 126 145 10,800  Level Jacksonville Center
Mon 01:11:09 PM 31.4458 -82.5833 357° North 121 139 10,800  Level Jacksonville Center
Mon 01:12:09 PM 31.4792 -82.5856 357° North 121 139 10,800 50 Level Jacksonville Center
Mon 01:13:09 PM 31.5147 -82.5928 350° North 121 139 10,900  Climbing Jacksonville Center
Mon 01:14:09 PM 31.5461 -82.6025 345° North 121 139 10,800 -50 Descending Jacksonville Center
Mon 01:15:09 PM 31.5817 -82.6097 350° North 121 139 10,800  Level Jacksonville Center
Mon 01:16:09 PM 31.6150 -82.6242 340° North 121 139 10,800  Level Jacksonville Center
Mon 01:17:09 PM 31.6422 -82.6436 329° Northwest 121 139 10,800  Level Jacksonville Center
Mon 01:18:09 PM 31.6736 -82.6631 332° Northwest 121 139 10,800  Level Jacksonville Center
Mon 01:19:09 PM 31.6986 -82.6875 320° Northwest 121 139 10,800 50 Level Jacksonville Center
Mon 01:20:09 PM 31.7258 -82.7094 326° Northwest 121 139 10,900 -50 Climbing Jacksonville Center
Mon 01:21:09 PM 31.7531 -82.7361 320° Northwest 121 139 10,700 -150 Descending Jacksonville Center
Mon 01:22:09 PM 31.7803 -82.7656 317° Northwest 126 145 10,600 -50 Descending Jacksonville Center
Mon 01:23:09 PM 31.8033 -82.7922 315° West 126 145 10,600 50 Level Jacksonville Center
Mon 01:24:09 PM 31.8303 -82.8167 322° Northwest 121 139 10,700 50 Climbing Jacksonville Center
Mon 01:25:09 PM 31.8533 -82.8486 310° West 121 139 10,700 50 Level Jacksonville Center
Mon 01:26:09 PM 31.8825 -82.8656 334° Northwest 121 139 10,800 50 Climbing Jacksonville Center
Mon 01:27:09 PM 31.9097 -82.8853 328° Northwest 115 132 10,800 50 Level Jacksonville Center
Mon 01:28:09 PM 31.9411 -82.9072 329° Northwest 120 138 10,900 50 Climbing Jacksonville Center
Mon 01:29:09 PM 31.9661 -82.9294 323° Northwest 120 138 10,900  Level Jacksonville Center
Mon 01:30:09 PM 31.9953 -82.9514 327° Northwest 120 138 10,900  Level Jacksonville Center
Mon 01:31:09 PM 32.0225 -82.9733 326° Northwest 120 138 10,900  Level Jacksonville Center
Mon 01:32:09 PM 32.0539 -82.9858 341° North 120 138 10,900  Level Jacksonville Center
Mon 01:33:09 PM 32.0850 -83.0053 332° Northwest 120 138 10,900 -34 Level Jacksonville Center
Mon 01:35:06 PM 32.1453 -83.0331 339° North 122 140 10,800 -102 Descending Atlanta Center
Mon 01:36:06 PM 32.1808 -83.0497 338° Northwest 122 140 10,600 -50 Descending Atlanta Center
Mon 01:37:06 PM 32.2144 -83.0594 346° North 128 147 10,700 50 Climbing Atlanta Center
Mon 01:38:06 PM 32.2500 -83.0689 347° North 128 147 10,700  Level Atlanta Center
Mon 01:39:06 PM 32.2856 -83.0733 354° North 128 147 10,700  Level Atlanta Center
Mon 01:40:06 PM 32.3189 -83.0778 354° North 128 147 10,700 50 Level Atlanta Center
Mon 01:41:06 PM 32.3522 -83.0800 357° North 122 140 10,800 50 Climbing Atlanta Center
Mon 01:42:06 PM 32.3839 -83.0944 339° North 122 140 10,800  Level Atlanta Center
Mon 01:43:06 PM 32.4089 -83.1139 327° Northwest 116 133 10,800  Level Atlanta Center
Mon 01:44:06 PM 32.4364 -83.1381 323° Northwest 116 133 10,800 50 Level Atlanta Center
Mon 01:45:06 PM 32.4594 -83.1625 318° Northwest 116 133 10,900 50 Climbing Atlanta Center
Mon 01:46:06 PM 32.4847 -83.1844 324° Northwest 110 127 10,900 50 Level Atlanta Center
Mon 01:47:06 PM 32.5119 -83.2014 332° Northwest 110 127 11,000 50 Climbing Atlanta Center
Mon 01:48:06 PM 32.5331 -83.2308 310° West 110 127 11,000  Level Atlanta Center
Mon 01:49:06 PM 32.5478 -83.2625 299° West 110 127 11,000 -50 Level Atlanta Center
Mon 01:50:06 PM 32.5667 -83.2944 305° West 110 127 10,900 -50 Descending Atlanta Center
Mon 01:51:06 PM 32.5897 -83.3189 318° Northwest 116 133 10,900 -50 Level Atlanta Center
Mon 01:52:06 PM 32.6233 -83.3261 350° North 111 128 10,800 -100 Descending Atlanta Center
Mon 01:53:06 PM 32.6589 -83.3331 351° North 117 135 10,700  Descending Atlanta Center
Mon 01:54:06 PM 32.6922 -83.3281 North 123 142 10,800 50 Climbing Atlanta Center
Mon 01:55:06 PM 32.7278 -83.3278 360° North 123 142 10,800 -50 Level Atlanta Center
Mon 01:56:06 PM 32.7611 -83.3275 360° North 123 142 10,700 -50 Descending Atlanta Center
Mon 01:57:06 PM 32.7944 -83.3319 354° North 118 136 10,700 -50 Level Atlanta Center
Mon 01:58:06 PM 32.8278 -83.3417 346° North 118 136 10,600  Descending Atlanta Center
Mon 01:59:06 PM 32.8531 -83.3539 338° Northwest 118 136 10,700  Climbing Atlanta Center
Mon 02:00:06 PM 32.8803 -83.3711 332° Northwest 113 130 10,600 -50 Descending Atlanta Center
Mon 02:01:06 PM 32.9094 -83.3881 334° Northwest 113 130 10,600  Level Atlanta Center
Mon 02:02:06 PM 32.9408 -83.3878 360° North 113 130 10,600 50 Level Atlanta Center
Mon 02:03:06 PM 32.9742 -83.3875 360° North 113 130 10,700  Climbing Atlanta Center
Mon 02:04:06 PM 33.0078 -83.3947 350° North 113 130 10,600  Descending Atlanta Center
Mon 02:05:06 PM 33.0411 -83.3994 353° North 113 130 10,700  Climbing Atlanta Center
Mon 02:06:06 PM 33.0706 -83.4142 337° Northwest 113 130 10,600 -100 Descending Atlanta Center
Mon 02:07:06 PM 33.1061 -83.4264 344° North 118 136 10,500 -350 Descending Atlanta Center
Mon 02:08:06 PM 33.1333 -83.4533 320° Northwest 123 142 9,900 -700 Descending Atlanta Center
Mon 02:09:06 PM 33.1647 -83.4806 324° Northwest 133 153 9,100 -850 Descending Atlanta Center
Mon 02:10:06 PM 33.1942 -83.5125 318° Northwest 133 153 8,200 -1,000 Descending Atlanta Center
Mon 02:11:06 PM 33.2233 -83.5347 327° Northwest 128 147 7,100 -1,100 Descending Atlanta Center
Mon 02:12:06 PM 33.2547 -83.5519 335° Northwest 122 140 6,000 -1,150 Descending Atlanta Center
Mon 02:13:06 PM 33.2819 -83.5742 326° Northwest 122 140 4,800 -1,200 Descending Atlanta Center
Mon 02:14:06 PM 33.3050 -83.6039 313° West 122 140 3,600 -800 Descending Atlanta Center
Mon 02:15:06 PM 33.3322 -83.6236 329° Northwest 117 135 3,200 -250 Descending Atlanta Center
Mon 02:16:06 PM 33.3656 -83.6283 353° North 111 128 3,100 -63 Descending Atlanta Center
Mon 02:18:16 PM 33.4333 -83.6500 345° North 126 145 3,000 32 Descending Atlanta TRACON
Mon 02:19:16 PM 33.4667 -83.6667 337° Northwest 127 146 3,200 298 Climbing Atlanta TRACON
Mon 02:20:17 PM 33.5000 -83.6833 337° Northwest 138 159 3,600 250 Climbing Atlanta TRACON
Mon 02:21:16 PM 33.5333 -83.7000 337° Northwest 141 162 3,700 50 Climbing Atlanta TRACON
Mon 02:22:16 PM 33.5667 -83.7167 337° Northwest 121 139 3,700  Level Atlanta TRACON
Mon 02:23:11 PM 33.5833 -83.7333 320° Northwest 126 145 3,700 -52 Level Atlanta TRACON
Mon 02:24:11 PM 33.6167 -83.7500 337° Northwest 125 144 3,600 -48 Descending Atlanta TRACON
Mon 02:25:16 PM 33.6500 -83.7667 337° Northwest 123 142 3,600 144 Level Atlanta TRACON
Mon 02:26:16 PM 33.6833 -83.7833 337° Northwest 121 139 3,900 261 Climbing Atlanta TRACON
Mon 02:27:11 PM 33.7167 -83.8000 337° Northwest 120 138 4,100 250 Climbing Atlanta TRACON
Mon 02:28:16 PM 33.7500 -83.8000 360° North 119 137 4,400 250 Climbing Atlanta TRACON
Mon 02:29:11 PM 33.7833 -83.8167 337° Northwest 111 128 4,600 110 Climbing Atlanta TRACON
Mon 02:30:05 PM 33.8000 -83.8333 320° Northwest 113 130 4,600  Level Atlanta TRACON
Mon 02:31:05 PM 33.8333 -83.8333 360° North 110 127 4,600  Level Atlanta TRACON
Mon 02:32:05 PM 33.8500 -83.8500 320° Northwest 111 128 4,600 50 Level Atlanta TRACON
Mon 02:33:05 PM 33.8833 -83.8667 337° Northwest 107 123 4,700 150 Climbing Atlanta TRACON
Mon 02:34:05 PM 33.9167 -83.8833 337° Northwest 115 132 4,900 96 Climbing Atlanta TRACON
Mon 02:35:10 PM 33.9333 -83.9167 301° West 126 145 4,900  Level Atlanta TRACON
Mon 02:36:05 PM 33.9500 -83.9500 301° West 120 138 4,900  Level Atlanta TRACON
Mon 02:37:05 PM 33.9833 -83.9833 320° Northwest 118 136 4,900 -96 Level Atlanta TRACON
Mon 02:38:10 PM 34.0000 -84.0000 320° Northwest 123 142 4,700 -100 Descending Atlanta TRACON
Mon 02:39:05 PM 34.0333 -84.0333 320° Northwest 122 140 4,700 -50 Level Atlanta TRACON
Mon 02:40:10 PM 34.0500 -84.0667 301° West 124 143 4,600 -92 Descending Atlanta TRACON
Mon 02:42:00 PM 34.0897 -84.1220 311° West  Level FlightAware Approximate
Mon 02:49:00 PM 34.2409 -84.3336 311° West  Level FlightAware Approximate
Mon 02:50:00 PM 34.2625 -84.3639 311° West  Level FlightAware Approximate
Mon 02:51:00 PM 34.2840 -84.3942 311° West  Level FlightAware Approximate
Mon 02:52:00 PM 34.3000 -84.4167 North  Level FlightAware Approximate
Mon 02:53:00 PM 34.3122 -84.4222 North  Level Estimated
Mon 02:54:00 PM 34.3122 -84.4222 North  Level Estimated
Mon 02:55:00 PM 34.3122 -84.4222 North  Level Estimated
Mon 02:56:00 PM 34.3122 -84.4222 North  Level Estimated
Mon 02:57:00 PM 34.3122 -84.4222 North  Level Estimated
Mon 02:58:00 PM 34.3122 -84.4222 North  Level Estimated
Mon 02:59:00 PM 34.3122 -84.4222 North  Level Estimated
Mon 03:00:00 PM 34.3122 -84.4222 North  Level Estimated
Mon 03:01:00 PM 34.3122 -84.4222 North  Level Estimated
Mon 03:02:00 PM 34.3122 -84.4222 North  Level Estimated
Mon 03:03:00 PM 34.3122 -84.4222 North  Level Estimated
Mon 03:04:00 PM 34.3122 -84.4222 North  Level Estimated
Mon 03:05:00 PM 34.3122 -84.4222 North  Level Estimated
Mon 03:06:00 PM 34.3122 -84.4222 North  Level Estimated

Login

Don't have an account? Register now (free) for customized features, flight alerts, and more!